sensor_id;sensor_type;location;lat;lon;timestamp;pressure;altitude;pressure_sealevel;temperature;humidity
76086;BME280;64791;0.000;0.000;2023-04-25T07:00:27;94432.22;;;23.34;43.64
76086;BME280;64791;0.000;0.000;2023-04-25T07:02:54;94441.75;;;23.16;44.05
76086;BME280;64791;0.000;0.000;2023-04-25T07:05:20;94442.88;;;23.11;44.78
76086;BME280;64791;0.000;0.000;2023-04-25T07:07:46;94439.22;;;23.08;45.29
76086;BME280;64791;0.000;0.000;2023-04-25T07:10:12;94440.44;;;23.05;45.08
76086;BME280;64791;0.000;0.000;2023-04-25T07:12:37;94446.19;;;23.07;45.29
76086;BME280;64791;0.000;0.000;2023-04-25T07:15:04;94441.41;;;23.10;44.79
76086;BME280;64791;0.000;0.000;2023-04-25T07:17:31;94446.66;;;23.04;44.87
76086;BME280;64791;0.000;0.000;2023-04-25T07:19:57;94443.63;;;23.00;45.19
76086;BME280;64791;0.000;0.000;2023-04-25T07:22:22;94435.81;;;22.98;45.60
76086;BME280;64791;0.000;0.000;2023-04-25T07:24:48;94437.47;;;23.03;45.74
76086;BME280;64791;0.000;0.000;2023-04-25T07:27:15;94441.53;;;23.00;47.10
76086;BME280;64791;0.000;0.000;2023-04-25T07:29:57;94438.50;;;22.96;46.13
76086;BME280;64791;0.000;0.000;2023-04-25T07:32:23;94435.47;;;22.92;45.96
76086;BME280;64791;0.000;0.000;2023-04-25T07:34:48;94444.63;;;22.93;46.92
76086;BME280;64791;0.000;0.000;2023-04-25T07:37:13;94434.22;;;22.95;46.87
76086;BME280;64791;0.000;0.000;2023-04-25T07:39:53;94429.84;;;22.92;47.83
76086;BME280;64791;0.000;0.000;2023-04-25T07:42:19;94433.25;;;22.91;47.98
76086;BME280;64791;0.000;0.000;2023-04-25T07:44:44;94426.16;;;22.90;48.10
76086;BME280;64791;0.000;0.000;2023-04-25T07:47:12;94423.97;;;22.88;48.21
76086;BME280;64791;0.000;0.000;2023-04-25T07:49:38;94425.94;;;22.86;48.22
76086;BME280;64791;0.000;0.000;2023-04-25T07:52:04;94430.84;;;22.85;48.41
76086;BME280;64791;0.000;0.000;2023-04-25T07:54:32;94416.66;;;22.83;48.71
76086;BME280;64791;0.000;0.000;2023-04-25T07:57:03;94416.03;;;22.85;48.58
76086;BME280;64791;0.000;0.000;2023-04-25T07:59:29;94419.59;;;22.85;48.60
76086;BME280;64791;0.000;0.000;2023-04-25T08:01:55;94414.69;;;22.86;48.45
76086;BME280;64791;0.000;0.000;2023-04-25T08:04:23;94423.72;;;22.84;48.56
76086;BME280;64791;0.000;0.000;2023-04-25T08:07:00;94417.41;;;22.84;48.61
76086;BME280;64791;0.000;0.000;2023-04-25T08:09:29;94413.97;;;22.85;48.70
76086;BME280;64791;0.000;0.000;2023-04-25T08:11:59;94416.88;;;22.87;48.70
76086;BME280;64791;0.000;0.000;2023-04-25T08:14:29;94417.00;;;22.89;48.54
76086;BME280;64791;0.000;0.000;2023-04-25T08:17:00;94414.28;;;22.91;48.46
76086;BME280;64791;0.000;0.000;2023-04-25T08:19:26;94412.44;;;22.96;48.31
76086;BME280;64791;0.000;0.000;2023-04-25T08:21:52;94395.66;;;22.98;48.33
76086;BME280;64791;0.000;0.000;2023-04-25T08:24:23;94402.88;;;23.01;48.29
76086;BME280;64791;0.000;0.000;2023-04-25T08:26:48;94393.19;;;23.04;48.29
76086;BME280;64791;0.000;0.000;2023-04-25T08:29:16;94386.47;;;23.09;48.02
76086;BME280;64791;0.000;0.000;2023-04-25T08:31:42;94381.59;;;23.09;48.02
76086;BME280;64791;0.000;0.000;2023-04-25T08:34:09;94393.56;;;23.10;47.99
76086;BME280;64791;0.000;0.000;2023-04-25T08:36:55;94406.91;;;23.09;47.97
76086;BME280;64791;0.000;0.000;2023-04-25T08:39:38;94418.03;;;23.07;48.12
76086;BME280;64791;0.000;0.000;2023-04-25T08:42:24;94415.69;;;23.04;48.29
76086;BME280;64791;0.000;0.000;2023-04-25T08:44:53;94422.09;;;23.04;48.29
76086;BME280;64791;0.000;0.000;2023-04-25T08:47:19;94420.47;;;23.01;48.33
76086;BME280;64791;0.000;0.000;2023-04-25T08:49:50;94430.41;;;23.02;48.34
76086;BME280;64791;0.000;0.000;2023-04-25T08:52:21;94421.84;;;23.00;48.34
76086;BME280;64791;0.000;0.000;2023-04-25T08:54:47;94407.88;;;23.02;48.45
76086;BME280;64791;0.000;0.000;2023-04-25T08:57:14;94407.16;;;23.02;48.25
76086;BME280;64791;0.000;0.000;2023-04-25T08:59:40;94408.88;;;23.07;48.35
76086;BME280;64791;0.000;0.000;2023-04-25T09:02:11;94395.66;;;23.09;48.32
76086;BME280;64791;0.000;0.000;2023-04-25T09:04:39;94385.09;;;23.10;47.93
76086;BME280;64791;0.000;0.000;2023-04-25T09:07:06;94383.03;;;23.10;48.39
76086;BME280;64791;0.000;0.000;2023-04-25T09:09:32;94379.47;;;23.10;48.24
76086;BME280;64791;0.000;0.000;2023-04-25T09:11:58;94386.59;;;23.11;48.26
76086;BME280;64791;0.000;0.000;2023-04-25T09:14:25;94376.78;;;23.12;48.75
76086;BME280;64791;0.000;0.000;2023-04-25T09:17:11;94375.53;;;23.15;48.46
76086;BME280;64791;0.000;0.000;2023-04-25T09:19:46;94375.66;;;23.17;48.34
76086;BME280;64791;0.000;0.000;2023-04-25T09:22:16;94365.97;;;23.20;48.20
76086;BME280;64791;0.000;0.000;2023-04-25T09:24:44;94370.34;;;23.23;48.29
76086;BME280;64791;0.000;0.000;2023-04-25T09:27:11;94369.13;;;23.26;48.15
76086;BME280;64791;0.000;0.000;2023-04-25T09:29:38;94364.94;;;23.27;48.24
76086;BME280;64791;0.000;0.000;2023-04-25T09:32:20;94365.03;;;23.29;47.70
76086;BME280;64791;0.000;0.000;2023-04-25T09:34:53;94362.88;;;23.27;48.22
76086;BME280;64791;0.000;0.000;2023-04-25T09:37:23;94367.75;;;23.27;48.19
76086;BME280;64791;0.000;0.000;2023-04-25T09:40:05;94367.88;;;23.29;48.03
76086;BME280;64791;0.000;0.000;2023-04-25T09:42:33;94353.78;;;23.29;48.05
76086;BME280;64791;0.000;0.000;2023-04-25T09:45:00;94354.63;;;23.31;48.47
76086;BME280;64791;0.000;0.000;2023-04-25T09:47:36;94364.56;;;23.32;48.07
76086;BME280;64791;0.000;0.000;2023-04-25T09:50:03;94359.75;;;23.35;48.00
76086;BME280;64791;0.000;0.000;2023-04-25T09:52:28;94374.66;;;23.37;47.80
76086;BME280;64791;0.000;0.000;2023-04-25T09:55:16;94373.94;;;23.37;47.87
76086;BME280;64791;0.000;0.000;2023-04-25T09:57:43;94371.03;;;23.35;48.07
76086;BME280;64791;0.000;0.000;2023-04-25T10:00:12;94373.09;;;23.34;47.89
76086;BME280;64791;0.000;0.000;2023-04-25T10:02:42;94367.38;;;23.32;48.15
76086;BME280;64791;0.000;0.000;2023-04-25T10:05:10;94368.81;;;23.33;48.02
76086;BME280;64791;0.000;0.000;2023-04-25T10:07:38;94376.03;;;23.36;47.95
76086;BME280;64791;0.000;0.000;2023-04-25T10:10:07;94366.31;;;23.39;48.06
76086;BME280;64791;0.000;0.000;2023-04-25T10:12:33;94358.63;;;23.40;48.00
76086;BME280;64791;0.000;0.000;2023-04-25T10:14:58;94351.63;;;23.41;48.06
76086;BME280;64791;0.000;0.000;2023-04-25T10:17:25;94353.63;;;23.38;48.38
76086;BME280;64791;0.000;0.000;2023-04-25T10:19:52;94347.88;;;23.36;47.94
76086;BME280;64791;0.000;0.000;2023-04-25T10:22:20;94353.41;;;23.34;48.39
76086;BME280;64791;0.000;0.000;2023-04-25T10:24:48;94362.34;;;23.31;48.52
76086;BME280;64791;0.000;0.000;2023-04-25T10:27:15;94358.81;;;23.30;48.39
76086;BME280;64791;0.000;0.000;2023-04-25T10:29:40;94354.53;;;23.29;48.40
76086;BME280;64791;0.000;0.000;2023-04-25T10:32:07;94359.03;;;23.34;48.37
76086;BME280;64791;0.000;0.000;2023-04-25T10:34:40;94359.88;;;23.37;48.27
76086;BME280;64791;0.000;0.000;2023-04-25T10:37:06;94374.66;;;23.37;48.23
76086;BME280;64791;0.000;0.000;2023-04-25T10:39:33;94377.59;;;23.39;48.38
76086;BME280;64791;0.000;0.000;2023-04-25T10:41:59;94374.78;;;23.39;48.40
76086;BME280;64791;0.000;0.000;2023-04-25T10:44:31;94367.69;;;23.38;48.26
76086;BME280;64791;0.000;0.000;2023-04-25T10:46:56;94363.41;;;23.37;48.02
76086;BME280;64791;0.000;0.000;2023-04-25T10:52:11;94360.09;;;23.41;47.85
76086;BME280;64791;0.000;0.000;2023-04-25T10:54:45;94357.38;;;23.43;47.75
76086;BME280;64791;0.000;0.000;2023-04-25T11:00:00;94348.50;;;23.49;47.83
76086;BME280;64791;0.000;0.000;2023-04-25T11:02:26;94350.84;;;23.52;47.52
76086;BME280;64791;0.000;0.000;2023-04-25T11:04:53;94353.75;;;23.54;47.37
76086;BME280;64791;0.000;0.000;2023-04-25T11:10:01;94340.63;;;23.59;47.52
76086;BME280;64791;0.000;0.000;2023-04-25T11:12:26;94346.34;;;23.61;47.46
76086;BME280;64791;0.000;0.000;2023-04-25T11:14:57;94330.91;;;23.62;47.18
76086;BME280;64791;0.000;0.000;2023-04-25T11:17:24;94324.63;;;23.63;47.02
76086;BME280;64791;0.000;0.000;2023-04-25T11:19:50;94331.75;;;23.64;47.31
76086;BME280;64791;0.000;0.000;2023-04-25T11:22:16;94336.03;;;23.65;47.04
76086;BME280;64791;0.000;0.000;2023-04-25T11:24:41;94337.47;;;23.66;47.31
76086;BME280;64791;0.000;0.000;2023-04-25T11:27:07;94334.56;;;23.64;47.09
76086;BME280;64791;0.000;0.000;2023-04-25T11:29:33;94331.00;;;23.64;47.36
76086;BME280;64791;0.000;0.000;2023-04-25T11:31:59;94328.09;;;23.62;47.24
76086;BME280;64791;0.000;0.000;2023-04-25T11:34:26;94325.06;;;23.58;47.21
76086;BME280;64791;0.000;0.000;2023-04-25T11:36:52;94334.75;;;23.55;47.29
76086;BME280;64791;0.000;0.000;2023-04-25T11:39:21;94343.81;;;23.53;47.48
76086;BME280;64791;0.000;0.000;2023-04-25T11:41:46;94344.34;;;23.50;47.26
76086;BME280;64791;0.000;0.000;2023-04-25T11:44:12;94341.44;;;23.48;47.47
76086;BME280;64791;0.000;0.000;2023-04-25T11:46:40;94340.59;;;23.45;47.33
76086;BME280;64791;0.000;0.000;2023-04-25T11:49:05;94344.16;;;23.46;47.09
76086;BME280;64791;0.000;0.000;2023-04-25T11:51:37;94344.63;;;23.42;47.32
76086;BME280;64791;0.000;0.000;2023-04-25T11:54:03;94326.91;;;23.39;47.79
76086;BME280;64791;0.000;0.000;2023-04-25T11:56:28;94332.44;;;23.37;47.69
76086;BME280;64791;0.000;0.000;2023-04-25T11:58:57;94340.28;;;23.39;47.31
76086;BME280;64791;0.000;0.000;2023-04-25T12:01:41;94336.81;;;23.41;47.54
76086;BME280;64791;0.000;0.000;2023-04-25T12:04:25;94331.31;;;23.43;47.32
76086;BME280;64791;0.000;0.000;2023-04-25T12:06:51;94321.50;;;23.44;47.40
76086;BME280;64791;0.000;0.000;2023-04-25T12:09:18;94315.88;;;23.44;47.49
76086;BME280;64791;0.000;0.000;2023-04-25T12:11:47;94309.63;;;23.45;47.49
76086;BME280;64791;0.000;0.000;2023-04-25T12:14:20;94306.16;;;23.47;47.42
76086;BME280;64791;0.000;0.000;2023-04-25T12:16:46;94325.28;;;23.48;47.40
76086;BME280;64791;0.000;0.000;2023-04-25T12:19:15;94321.81;;;23.50;47.37
76086;BME280;64791;0.000;0.000;2023-04-25T12:21:42;94316.19;;;23.50;47.21
76086;BME280;64791;0.000;0.000;2023-04-25T12:24:09;94310.56;;;23.50;47.22
76086;BME280;64791;0.000;0.000;2023-04-25T12:29:16;94335.91;;;23.50;47.32
76086;BME280;64791;0.000;0.000;2023-04-25T12:31:42;94367.63;;;23.50;47.03
76086;BME280;64791;0.000;0.000;2023-04-25T12:34:07;94372.53;;;23.50;47.15
76086;BME280;64791;0.000;0.000;2023-04-25T12:36:33;94381.59;;;23.48;47.01
76086;BME280;64791;0.000;0.000;2023-04-25T12:38:58;94393.47;;;23.47;47.05
76086;BME280;64791;0.000;0.000;2023-04-25T12:41:29;94390.53;;;23.45;47.16
76086;BME280;64791;0.000;0.000;2023-04-25T12:43:54;94393.25;;;23.43;47.14
76086;BME280;64791;0.000;0.000;2023-04-25T12:46:20;94389.69;;;23.42;47.40
76086;BME280;64791;0.000;0.000;2023-04-25T12:48:46;94393.78;;;23.39;47.27
76086;BME280;64791;0.000;0.000;2023-04-25T12:51:11;94393.66;;;23.37;47.36
76086;BME280;64791;0.000;0.000;2023-04-25T12:53:37;94401.38;;;23.36;47.44
76086;BME280;64791;0.000;0.000;2023-04-25T12:56:04;94391.34;;;23.33;47.49
76086;BME280;64791;0.000;0.000;2023-04-25T12:58:29;94393.44;;;23.33;47.53
76086;BME280;64791;0.000;0.000;2023-04-25T13:00:55;94389.78;;;23.30;47.56
76086;BME280;64791;0.000;0.000;2023-04-25T13:03:20;94389.69;;;23.28;47.60
76086;BME280;64791;0.000;0.000;2023-04-25T13:05:46;94390.28;;;23.27;47.71
76086;BME280;64791;0.000;0.000;2023-04-25T13:08:12;94390.91;;;23.25;47.50
76086;BME280;64791;0.000;0.000;2023-04-25T13:10:38;94395.09;;;23.24;48.07
76086;BME280;64791;0.000;0.000;2023-04-25T13:13:04;94391.22;;;23.31;46.86
76086;BME280;64791;0.000;0.000;2023-04-25T13:15:29;94377.03;;;23.16;42.84
76086;BME280;64791;0.000;0.000;2023-04-25T13:17:58;94390.78;;;22.98;41.50
76086;BME280;64791;0.000;0.000;2023-04-25T13:20:24;94390.84;;;22.75;41.12
76086;BME280;64791;0.000;0.000;2023-04-25T13:22:49;94377.19;;;22.95;42.62
76086;BME280;64791;0.000;0.000;2023-04-25T13:25:15;94390.59;;;22.83;42.73
76086;BME280;64791;0.000;0.000;2023-04-25T13:27:50;94388.84;;;22.89;46.60
76086;BME280;64791;0.000;0.000;2023-04-25T13:30:50;94383.25;;;23.53;44.63
76086;BME280;64791;0.000;0.000;2023-04-25T13:33:15;94387.84;;;23.99;45.14
76086;BME280;64791;0.000;0.000;2023-04-25T13:35:46;94384.38;;;24.28;43.74
76086;BME280;64791;0.000;0.000;2023-04-25T13:38:14;94388.06;;;24.44;45.00
76086;BME280;64791;0.000;0.000;2023-04-25T13:40:40;94389.47;;;24.58;43.82
76086;BME280;64791;0.000;0.000;2023-04-25T13:43:05;94384.66;;;24.74;44.81
76086;BME280;64791;0.000;0.000;2023-04-25T13:45:31;94387.13;;;24.82;44.56
76086;BME280;64791;0.000;0.000;2023-04-25T13:47:57;94378.56;;;24.80;42.56
76086;BME280;64791;0.000;0.000;2023-04-25T13:50:22;94381.09;;;24.74;43.79
76086;BME280;64791;0.000;0.000;2023-04-25T13:52:48;94382.44;;;24.73;43.55
76086;BME280;64791;0.000;0.000;2023-04-25T13:55:13;94375.44;;;24.74;43.24
76086;BME280;64791;0.000;0.000;2023-04-25T13:57:39;94359.13;;;25.15;45.21
76086;BME280;64791;0.000;0.000;2023-04-25T14:00:04;94359.31;;;25.19;45.44
76086;BME280;64791;0.000;0.000;2023-04-25T14:02:37;94354.78;;;24.56;47.95
76086;BME280;64791;0.000;0.000;2023-04-25T14:05:03;94346.81;;;24.09;49.14
76086;BME280;64791;0.000;0.000;2023-04-25T14:07:29;94354.00;;;23.85;49.95
76086;BME280;64791;0.000;0.000;2023-04-25T14:10:02;94356.06;;;23.71;51.04
76086;BME280;64791;0.000;0.000;2023-04-25T14:12:35;94349.88;;;23.61;51.25
76086;BME280;64791;0.000;0.000;2023-04-25T14:15:01;94357.41;;;23.57;51.95
76086;BME280;64791;0.000;0.000;2023-04-25T14:17:26;94344.56;;;23.54;52.61
76086;BME280;64791;0.000;0.000;2023-04-25T14:19:52;94344.56;;;23.54;52.89
76086;BME280;64791;0.000;0.000;2023-04-25T14:22:20;94351.66;;;23.55;53.31
76086;BME280;64791;0.000;0.000;2023-04-25T14:24:46;94355.19;;;23.55;53.42
76086;BME280;64791;0.000;0.000;2023-04-25T14:27:11;94349.06;;;23.59;53.69
76086;BME280;64791;0.000;0.000;2023-04-25T14:29:37;94357.63;;;23.61;53.74
76086;BME280;64791;0.000;0.000;2023-04-25T14:32:02;94354.19;;;23.62;54.22
76086;BME280;64791;0.000;0.000;2023-04-25T14:34:28;94341.53;;;23.63;54.45
76086;BME280;64791;0.000;0.000;2023-04-25T14:36:54;94337.38;;;23.64;54.40
76086;BME280;64791;0.000;0.000;2023-04-25T14:39:19;94347.31;;;23.65;54.62
76086;BME280;64791;0.000;0.000;2023-04-25T14:41:45;94348.75;;;23.66;54.76
76086;BME280;64791;0.000;0.000;2023-04-25T14:44:10;94339.66;;;23.68;54.95
76086;BME280;64791;0.000;0.000;2023-04-25T14:46:36;94341.88;;;23.69;55.05
76086;BME280;64791;0.000;0.000;2023-04-25T14:49:02;94332.59;;;23.67;50.48
76086;BME280;64791;0.000;0.000;2023-04-25T14:51:28;94332.97;;;23.61;49.26
76086;BME280;64791;0.000;0.000;2023-04-25T14:53:53;94342.69;;;23.58;49.89
76086;BME280;64791;0.000;0.000;2023-04-25T14:56:19;94336.97;;;23.56;50.44
76086;BME280;64791;0.000;0.000;2023-04-25T14:58:44;94328.31;;;23.52;50.56
76086;BME280;64791;0.000;0.000;2023-04-25T15:01:11;94329.00;;;23.53;52.18
76086;BME280;64791;0.000;0.000;2023-04-25T15:03:36;94315.66;;;23.53;51.04
76086;BME280;64791;0.000;0.000;2023-04-25T15:06:02;94315.56;;;23.51;50.32
76086;BME280;64791;0.000;0.000;2023-04-25T15:11:01;94307.63;;;23.48;50.26
76086;BME280;64791;0.000;0.000;2023-04-25T15:13:28;94306.47;;;23.53;47.32
76086;BME280;64791;0.000;0.000;2023-04-25T15:15:54;94303.63;;;23.78;50.20
76086;BME280;64791;0.000;0.000;2023-04-25T15:18:20;94300.66;;;24.17;49.37
76086;BME280;64791;0.000;0.000;2023-04-25T15:20:53;94295.38;;;24.38;49.77
76086;BME280;64791;0.000;0.000;2023-04-25T15:23:19;94294.09;;;24.55;49.41
76086;BME280;64791;0.000;0.000;2023-04-25T15:25:45;94291.94;;;24.53;49.50
76086;BME280;64791;0.000;0.000;2023-04-25T15:28:10;94289.53;;;24.34;50.31
76086;BME280;64791;0.000;0.000;2023-04-25T15:30:36;94288.84;;;24.20;50.95
76086;BME280;64791;0.000;0.000;2023-04-25T15:33:02;94290.72;;;24.29;51.69
76086;BME280;64791;0.000;0.000;2023-04-25T15:35:27;94289.44;;;24.32;51.60
76086;BME280;64791;0.000;0.000;2023-04-25T15:37:53;94283.97;;;24.50;51.40
76086;BME280;64791;0.000;0.000;2023-04-25T15:40:18;94281.69;;;25.20;50.25
76086;BME280;64791;0.000;0.000;2023-04-25T15:42:45;94286.00;;;25.37;49.59
76086;BME280;64791;0.000;0.000;2023-04-25T15:45:17;94285.19;;;25.50;48.91
76086;BME280;64791;0.000;0.000;2023-04-25T15:47:43;94284.09;;;25.41;49.50
76086;BME280;64791;0.000;0.000;2023-04-25T15:50:09;94285.88;;;25.50;49.99
76086;BME280;64791;0.000;0.000;2023-04-25T15:52:36;94273.75;;;25.95;48.88
76086;BME280;64791;0.000;0.000;2023-04-25T15:55:01;94284.81;;;26.06;49.37
76086;BME280;64791;0.000;0.000;2023-04-25T15:57:29;94278.06;;;26.13;48.49
76086;BME280;64791;0.000;0.000;2023-04-25T15:59:54;94270.91;;;25.95;48.55
76086;BME280;64791;0.000;0.000;2023-04-25T16:02:20;94285.06;;;25.95;48.55
76086;BME280;64791;0.000;0.000;2023-04-25T16:04:46;94290.06;;;25.96;49.13
76086;BME280;64791;0.000;0.000;2023-04-25T16:07:11;94306.91;;;26.10;49.17
76086;BME280;64791;0.000;0.000;2023-04-25T16:09:37;94303.13;;;26.21;49.02
76086;BME280;64791;0.000;0.000;2023-04-25T16:12:03;94296.84;;;26.22;49.41
76086;BME280;64791;0.000;0.000;2023-04-25T16:14:29;94306.44;;;26.15;50.63
76086;BME280;64791;0.000;0.000;2023-04-25T16:16:55;94295.13;;;26.15;48.44
76086;BME280;64791;0.000;0.000;2023-04-25T16:19:20;94291.06;;;26.03;48.75
76086;BME280;64791;0.000;0.000;2023-04-25T16:21:46;94299.28;;;25.81;49.22
76086;BME280;64791;0.000;0.000;2023-04-25T16:24:11;94294.53;;;26.01;49.46
76086;BME280;64791;0.000;0.000;2023-04-25T16:26:37;94292.53;;;26.21;49.73
76086;BME280;64791;0.000;0.000;2023-04-25T16:29:02;94293.88;;;26.36;51.77
76086;BME280;64791;0.000;0.000;2023-04-25T16:31:28;94306.75;;;26.39;49.48
76086;BME280;64791;0.000;0.000;2023-04-25T16:33:53;94310.31;;;26.24;47.69
76086;BME280;64791;0.000;0.000;2023-04-25T16:36:19;94305.53;;;27.69;49.54
76086;BME280;64791;0.000;0.000;2023-04-25T16:38:45;94306.22;;;29.59;40.59
76086;BME280;64791;0.000;0.000;2023-04-25T16:41:10;94303.38;;;31.80;35.62
76086;BME280;64791;0.000;0.000;2023-04-25T16:43:37;94311.56;;;33.09;32.91
76086;BME280;64791;0.000;0.000;2023-04-25T16:46:04;94301.19;;;34.39;30.09
76086;BME280;64791;0.000;0.000;2023-04-25T16:48:31;94310.44;;;36.00;27.86
76086;BME280;64791;0.000;0.000;2023-04-25T16:51:02;94315.06;;;37.46;25.76
76086;BME280;64791;0.000;0.000;2023-04-25T16:53:27;94314.34;;;37.05;26.36
76086;BME280;64791;0.000;0.000;2023-04-25T16:55:52;94315.56;;;36.22;27.42
76086;BME280;64791;0.000;0.000;2023-04-25T16:58:18;94321.06;;;35.83;28.24
76086;BME280;64791;0.000;0.000;2023-04-25T17:00:44;94332.22;;;36.72;27.00
76086;BME280;64791;0.000;0.000;2023-04-25T17:03:09;94334.16;;;36.07;27.60
76086;BME280;64791;0.000;0.000;2023-04-25T17:05:35;94339.47;;;36.83;26.74
76086;BME280;64791;0.000;0.000;2023-04-25T17:08:01;94344.56;;;37.73;24.92
76086;BME280;64791;0.000;0.000;2023-04-25T17:10:26;94346.03;;;37.48;25.60
76086;BME280;64791;0.000;0.000;2023-04-25T17:12:52;94353.91;;;37.07;26.02
76086;BME280;64791;0.000;0.000;2023-04-25T17:15:18;94349.59;;;37.24;25.81
76086;BME280;64791;0.000;0.000;2023-04-25T17:17:43;94351.59;;;36.49;26.24
76086;BME280;64791;0.000;0.000;2023-04-25T17:20:09;94353.09;;;36.70;26.32
76086;BME280;64791;0.000;0.000;2023-04-25T17:22:35;94357.91;;;35.19;28.52
76086;BME280;64791;0.000;0.000;2023-04-25T17:25:04;94360.13;;;35.27;28.19
76086;BME280;64791;0.000;0.000;2023-04-25T17:27:30;94362.78;;;35.90;27.02
76086;BME280;64791;0.000;0.000;2023-04-25T17:29:55;94359.44;;;35.30;28.01
76086;BME280;64791;0.000;0.000;2023-04-25T17:32:21;94356.13;;;34.84;28.66
76086;BME280;64791;0.000;0.000;2023-04-25T17:34:46;94357.50;;;34.17;29.53
76086;BME280;64791;0.000;0.000;2023-04-25T17:37:12;94358.13;;;34.09;30.15
76086;BME280;64791;0.000;0.000;2023-04-25T17:39:43;94357.25;;;33.99;29.90
76086;BME280;64791;0.000;0.000;2023-04-25T17:42:09;94364.03;;;33.71;30.50
76086;BME280;64791;0.000;0.000;2023-04-25T17:44:34;94374.69;;;33.67;30.62
76086;BME280;64791;0.000;0.000;2023-04-25T17:47:00;94381.94;;;33.72;30.51
76086;BME280;64791;0.000;0.000;2023-04-25T17:49:26;94382.97;;;33.47;30.73
76086;BME280;64791;0.000;0.000;2023-04-25T17:51:51;94388.81;;;33.53;30.66
76086;BME280;64791;0.000;0.000;2023-04-25T17:54:16;94387.44;;;33.14;31.21
76086;BME280;64791;0.000;0.000;2023-04-25T17:56:42;94401.03;;;32.76;31.82
76086;BME280;64791;0.000;0.000;2023-04-25T17:59:14;94395.81;;;32.66;31.59
76086;BME280;64791;0.000;0.000;2023-04-25T18:01:40;94400.19;;;32.36;32.86
76086;BME280;64791;0.000;0.000;2023-04-25T18:04:06;94401.66;;;32.37;31.99
76086;BME280;64791;0.000;0.000;2023-04-25T18:06:33;94408.16;;;31.76;33.48
76086;BME280;64791;0.000;0.000;2023-04-25T18:08:58;94403.69;;;31.98;33.04
76086;BME280;64791;0.000;0.000;2023-04-25T18:11:24;94404.91;;;31.89;32.96
76086;BME280;64791;0.000;0.000;2023-04-25T18:13:50;94408.00;;;31.10;34.33
76086;BME280;64791;0.000;0.000;2023-04-25T18:16:15;94414.53;;;30.38;35.90
76086;BME280;64791;0.000;0.000;2023-04-25T18:18:41;94417.59;;;30.20;35.47
76086;BME280;64791;0.000;0.000;2023-04-25T18:21:08;94414.03;;;29.96;35.82
76086;BME280;64791;0.000;0.000;2023-04-25T18:23:34;94409.06;;;30.20;35.44
76086;BME280;64791;0.000;0.000;2023-04-25T18:26:01;94413.31;;;29.07;33.80
76086;BME280;64791;0.000;0.000;2023-04-25T18:28:26;94413.75;;;28.38;31.93
76086;BME280;64791;0.000;0.000;2023-04-25T18:30:52;94413.22;;;28.05;31.49
76086;BME280;64791;0.000;0.000;2023-04-25T18:33:18;94421.13;;;28.08;31.33
76086;BME280;64791;0.000;0.000;2023-04-25T18:35:44;94415.78;;;28.55;30.95
76086;BME280;64791;0.000;0.000;2023-04-25T18:38:09;94415.56;;;29.10;31.74
76086;BME280;64791;0.000;0.000;2023-04-25T18:40:34;94407.56;;;29.48;32.25
76086;BME280;64791;0.000;0.000;2023-04-25T18:43:00;94410.88;;;29.19;33.71
76086;BME280;64791;0.000;0.000;2023-04-25T18:45:25;94410.59;;;29.11;33.89
76086;BME280;64791;0.000;0.000;2023-04-25T18:47:51;94399.38;;;28.93;34.56
76086;BME280;64791;0.000;0.000;2023-04-25T18:50:17;94405.31;;;28.40;35.83
76086;BME280;64791;0.000;0.000;2023-04-25T18:52:47;94411.53;;;28.96;34.86
76086;BME280;64791;0.000;0.000;2023-04-25T18:55:13;94410.44;;;28.85;35.08
76086;BME280;64791;0.000;0.000;2023-04-25T18:57:38;94411.25;;;28.88;35.20
76086;BME280;64791;0.000;0.000;2023-04-25T19:00:04;94411.53;;;28.96;35.39
76086;BME280;64791;0.000;0.000;2023-04-25T19:02:34;94410.47;;;28.66;36.04
76086;BME280;64791;0.000;0.000;2023-04-25T19:05:01;94417.88;;;28.55;36.11
76086;BME280;64791;0.000;0.000;2023-04-25T19:07:26;94411.16;;;28.25;36.82
76086;BME280;64791;0.000;0.000;2023-04-25T19:09:54;94405.78;;;28.15;37.06
76086;BME280;64791;0.000;0.000;2023-04-25T19:12:20;94405.91;;;28.17;37.46
76086;BME280;64791;0.000;0.000;2023-04-25T19:14:49;94418.13;;;27.84;38.22
76086;BME280;64791;0.000;0.000;2023-04-25T19:17:14;94424.38;;;27.81;37.96
76086;BME280;64791;0.000;0.000;2023-04-25T19:19:40;94425.19;;;27.48;39.19
76086;BME280;64791;0.000;0.000;2023-04-25T19:22:05;94424.56;;;27.15;39.70
76086;BME280;64791;0.000;0.000;2023-04-25T19:24:31;94429.88;;;27.42;39.30
76086;BME280;64791;0.000;0.000;2023-04-25T19:26:57;94431.84;;;27.20;39.91
76086;BME280;64791;0.000;0.000;2023-04-25T19:29:22;94435.53;;;26.73;40.78
76086;BME280;64791;0.000;0.000;2023-04-25T19:32:00;94427.47;;;26.83;40.44
76086;BME280;64791;0.000;0.000;2023-04-25T19:34:28;94424.00;;;26.52;41.21
76086;BME280;64791;0.000;0.000;2023-04-25T19:36:57;94423.31;;;26.20;42.79
76086;BME280;64791;0.000;0.000;2023-04-25T19:39:22;94422.28;;;25.98;43.32
76086;BME280;64791;0.000;0.000;2023-04-25T19:41:47;94423.31;;;26.36;41.67
76086;BME280;64791;0.000;0.000;2023-04-25T19:44:13;94422.13;;;26.25;41.95
76086;BME280;64791;0.000;0.000;2023-04-25T19:46:38;94427.97;;;26.13;42.59
76086;BME280;64791;0.000;0.000;2023-04-25T19:49:05;94426.59;;;26.14;42.32
76086;BME280;64791;0.000;0.000;2023-04-25T19:51:31;94424.13;;;26.07;42.95
76086;BME280;64791;0.000;0.000;2023-04-25T19:53:57;94429.22;;;25.79;43.42
76086;BME280;64791;0.000;0.000;2023-04-25T19:56:22;94431.22;;;25.77;43.25
76086;BME280;64791;0.000;0.000;2023-04-25T19:58:48;94420.88;;;25.68;43.37
76086;BME280;64791;0.000;0.000;2023-04-25T20:01:14;94422.31;;;25.53;44.02
76086;BME280;64791;0.000;0.000;2023-04-25T20:03:40;94427.16;;;25.50;44.36
76086;BME280;64791;0.000;0.000;2023-04-25T20:06:05;94426.72;;;25.56;44.12
76086;BME280;64791;0.000;0.000;2023-04-25T20:08:33;94435.00;;;25.52;44.30
76086;BME280;64791;0.000;0.000;2023-04-25T20:10:58;94436.81;;;25.45;44.47
76086;BME280;64791;0.000;0.000;2023-04-25T20:13:26;94431.22;;;25.32;44.39
76086;BME280;64791;0.000;0.000;2023-04-25T20:15:52;94432.97;;;25.39;44.25
76086;BME280;64791;0.000;0.000;2023-04-25T20:18:18;94430.84;;;25.24;44.51
76086;BME280;64791;0.000;0.000;2023-04-25T20:20:43;94430.00;;;25.21;45.13
76086;BME280;64791;0.000;0.000;2023-04-25T20:23:09;94433.25;;;25.16;44.98